Pagrindinis puslapis
METAR-TAF:

METAR-TAF

Oro uostai :

Veliko Tirnovas, Bulgarija

platuma: 43-09N, ilguma: 025-36E, Aukštis: 87 m

Dabartinis oras

Ataskaita buvo paskelbta 11 minutes, ne 20:30 UTC
Vėjas 7 kt iš Rytų
Temperatūra 0°C
Drėgmė 100%
Slėgis 1021 hPa
Matomumas: 2300 m
rūkana

METAR: LBGO 152030Z AUTO 09007KT 5000 2300E BR NCD M00/M00 Q1021

Laikas: 22:41 (20:41 UTC)

Prognozė

Ataskaita buvo paskelbta 3 valandos ir 41 minutes, ne 17:00 UTC
Prognozė galioja nuo 15 metu 18 UTC su 16 metu 18 UTC
Vėjas 8 kt iš Rytų
Matomumas: 5000 m
rūkana
Tapsmas
nuo 15 metu 19 UTC su 15 metu 21 UTC
Vėjas 4 kt nuo kintamojo kryptimis
Matomumas: 1500 m
rūkana
Laikinai
nuo 15 metu 22 UTC su 16 metu 07 UTC
Matomumas: 0600 m
Su prošvaistėmis ne aukštis 200 ft
rūkas
Tapsmas
nuo 16 metu 08 UTC su 16 metu 10 UTC
Matomumas 10 km arba daugiau
nėra debesų žemiau 1500 m ir nėra kamuolinių lietaus debesų

TAF: LBGO 151700Z 1518/1618 09008KT 5000 BR NSC BECMG 1519/1521 VRB04KT 1500 BR TEMPO 1522/1607 0600 FG BKN002 BECMG 1608/1610 CAVOK

Orai ataskaitas ir orų prognozės (METAR, TAF).

turimą stotys yra geltonos ir raudonos taškus žemėlapyje.

Perkelti pele per norėdami pamatyti stoties vardą.

Tada spustelėkite, norėdami matyti oro stebėjimo ir prognozės.

Norėdami pakeisti žemėlapį: spustelėkite ant žalios mygtukų su juodo kryžiaus žemyn,; žalią mygtuką su brūkšneliu, jei norite nutolinti; arba žalių rodyklių gretimoms žemėlapius.


METAR-TAF: